sensor_id;sensor_type;location;lat;lon;timestamp;temperature;humidity
19261;DHT22;9764;48.114;11.670;2023-02-15T00:00:09;19.70;82.70
19261;DHT22;9764;48.114;11.670;2023-02-15T00:02:38;19.70;82.80
19261;DHT22;9764;48.114;11.670;2023-02-15T00:05:07;19.60;82.90
19261;DHT22;9764;48.114;11.670;2023-02-15T00:07:35;19.60;82.90
19261;DHT22;9764;48.114;11.670;2023-02-15T00:10:05;19.60;82.70
19261;DHT22;9764;48.114;11.670;2023-02-15T00:12:33;19.70;82.80
19261;DHT22;9764;48.114;11.670;2023-02-15T00:15:02;19.70;82.90
19261;DHT22;9764;48.114;11.670;2023-02-15T00:17:31;19.70;82.80
19261;DHT22;9764;48.114;11.670;2023-02-15T00:20:00;19.70;82.80
19261;DHT22;9764;48.114;11.670;2023-02-15T00:22:28;19.60;82.90
19261;DHT22;9764;48.114;11.670;2023-02-15T00:24:56;19.60;82.90
19261;DHT22;9764;48.114;11.670;2023-02-15T00:27:25;19.60;82.90
19261;DHT22;9764;48.114;11.670;2023-02-15T00:29:53;19.60;82.80
19261;DHT22;9764;48.114;11.670;2023-02-15T00:32:21;19.60;82.80
19261;DHT22;9764;48.114;11.670;2023-02-15T00:34:51;19.60;82.90
19261;DHT22;9764;48.114;11.670;2023-02-15T00:37:19;19.60;82.90
19261;DHT22;9764;48.114;11.670;2023-02-15T00:39:47;19.60;83.60
19261;DHT22;9764;48.114;11.670;2023-02-15T00:42:16;19.70;82.60
19261;DHT22;9764;48.114;11.670;2023-02-15T00:44:45;19.60;82.70
19261;DHT22;9764;48.114;11.670;2023-02-15T00:47:13;19.60;82.80
19261;DHT22;9764;48.114;11.670;2023-02-15T00:49:41;19.60;82.80
19261;DHT22;9764;48.114;11.670;2023-02-15T00:52:11;19.60;82.80
19261;DHT22;9764;48.114;11.670;2023-02-15T00:54:39;19.70;82.70
19261;DHT22;9764;48.114;11.670;2023-02-15T00:57:07;19.60;82.60
19261;DHT22;9764;48.114;11.670;2023-02-15T00:59:36;19.60;82.60
19261;DHT22;9764;48.114;11.670;2023-02-15T01:02:04;19.60;82.80
19261;DHT22;9764;48.114;11.670;2023-02-15T01:04:32;19.60;82.80
19261;DHT22;9764;48.114;11.670;2023-02-15T01:07:00;19.50;82.80
19261;DHT22;9764;48.114;11.670;2023-02-15T01:09:34;19.50;82.90
19261;DHT22;9764;48.114;11.670;2023-02-15T01:12:02;19.60;82.80
19261;DHT22;9764;48.114;11.670;2023-02-15T01:14:31;19.60;82.80
19261;DHT22;9764;48.114;11.670;2023-02-15T01:16:59;19.50;82.90
19261;DHT22;9764;48.114;11.670;2023-02-15T01:19:27;19.60;82.80
19261;DHT22;9764;48.114;11.670;2023-02-15T01:21:55;19.50;82.80
19261;DHT22;9764;48.114;11.670;2023-02-15T01:24:24;19.60;82.70
19261;DHT22;9764;48.114;11.670;2023-02-15T01:26:53;19.60;82.80
19261;DHT22;9764;48.114;11.670;2023-02-15T01:29:22;19.50;82.90
19261;DHT22;9764;48.114;11.670;2023-02-15T01:31:50;19.50;82.80
19261;DHT22;9764;48.114;11.670;2023-02-15T01:34:19;19.50;82.90
19261;DHT22;9764;48.114;11.670;2023-02-15T01:36:47;19.50;82.90
19261;DHT22;9764;48.114;11.670;2023-02-15T01:39:15;19.50;82.80
19261;DHT22;9764;48.114;11.670;2023-02-15T01:41:43;19.50;82.80
19261;DHT22;9764;48.114;11.670;2023-02-15T01:44:47;19.60;82.70
19261;DHT22;9764;48.114;11.670;2023-02-15T01:47:18;19.50;82.80
19261;DHT22;9764;48.114;11.670;2023-02-15T01:49:47;19.50;82.80
19261;DHT22;9764;48.114;11.670;2023-02-15T01:52:19;19.40;82.80
19261;DHT22;9764;48.114;11.670;2023-02-15T01:54:50;19.50;82.80
19261;DHT22;9764;48.114;11.670;2023-02-15T01:57:22;19.50;82.70
19261;DHT22;9764;48.114;11.670;2023-02-15T01:59:55;19.50;82.90
19261;DHT22;9764;48.114;11.670;2023-02-15T02:02:24;19.50;82.90
19261;DHT22;9764;48.114;11.670;2023-02-15T02:04:54;19.40;83.00
19261;DHT22;9764;48.114;11.670;2023-02-15T02:07:27;19.40;83.90
19261;DHT22;9764;48.114;11.670;2023-02-15T02:09:59;19.50;83.00
19261;DHT22;9764;48.114;11.670;2023-02-15T02:12:33;19.50;82.90
19261;DHT22;9764;48.114;11.670;2023-02-15T02:15:04;19.50;82.90
19261;DHT22;9764;48.114;11.670;2023-02-15T02:17:42;19.50;83.00
19261;DHT22;9764;48.114;11.670;2023-02-15T02:20:28;19.50;82.90
19261;DHT22;9764;48.114;11.670;2023-02-15T02:23:27;19.50;82.80
19261;DHT22;9764;48.114;11.670;2023-02-15T02:35:09;19.40;83.00
19261;DHT22;9764;48.114;11.670;2023-02-15T02:37:47;19.40;83.00
19261;DHT22;9764;48.114;11.670;2023-02-15T02:40:23;19.40;83.00
19261;DHT22;9764;48.114;11.670;2023-02-15T02:42:58;19.40;83.00
19261;DHT22;9764;48.114;11.670;2023-02-15T02:45:31;19.40;83.00
19261;DHT22;9764;48.114;11.670;2023-02-15T02:48:05;19.40;83.00
19261;DHT22;9764;48.114;11.670;2023-02-15T02:50:39;19.40;82.90
19261;DHT22;9764;48.114;11.670;2023-02-15T02:53:09;19.40;82.80
19261;DHT22;9764;48.114;11.670;2023-02-15T02:55:40;19.40;82.80
19261;DHT22;9764;48.114;11.670;2023-02-15T02:58:15;19.40;82.70
19261;DHT22;9764;48.114;11.670;2023-02-15T03:00:48;19.40;82.80
19261;DHT22;9764;48.114;11.670;2023-02-15T03:03:21;19.40;82.90
19261;DHT22;9764;48.114;11.670;2023-02-15T03:05:57;19.40;83.00
19261;DHT22;9764;48.114;11.670;2023-02-15T03:08:30;19.40;82.90
19261;DHT22;9764;48.114;11.670;2023-02-15T03:11:01;19.40;82.80
19261;DHT22;9764;48.114;11.670;2023-02-15T03:13:30;19.40;82.90
19261;DHT22;9764;48.114;11.670;2023-02-15T03:16:01;19.30;83.00
19261;DHT22;9764;48.114;11.670;2023-02-15T03:19:00;19.30;82.90
19261;DHT22;9764;48.114;11.670;2023-02-15T03:21:35;19.40;82.90
19261;DHT22;9764;48.114;11.670;2023-02-15T03:24:09;19.30;82.90
19261;DHT22;9764;48.114;11.670;2023-02-15T03:26:46;19.30;83.00
19261;DHT22;9764;48.114;11.670;2023-02-15T03:29:16;19.40;82.90
19261;DHT22;9764;48.114;11.670;2023-02-15T03:31:47;19.30;83.00
19261;DHT22;9764;48.114;11.670;2023-02-15T03:34:18;19.30;82.90
19261;DHT22;9764;48.114;11.670;2023-02-15T03:36:51;19.30;83.00
19261;DHT22;9764;48.114;11.670;2023-02-15T03:39:24;19.30;82.90
19261;DHT22;9764;48.114;11.670;2023-02-15T03:41:58;19.30;83.00
19261;DHT22;9764;48.114;11.670;2023-02-15T03:44:30;19.30;83.00
19261;DHT22;9764;48.114;11.670;2023-02-15T03:47:03;19.30;83.00
19261;DHT22;9764;48.114;11.670;2023-02-15T03:49:39;19.30;83.00
19261;DHT22;9764;48.114;11.670;2023-02-15T03:52:11;19.30;83.00
19261;DHT22;9764;48.114;11.670;2023-02-15T03:54:43;19.30;83.00
19261;DHT22;9764;48.114;11.670;2023-02-15T03:57:16;19.20;82.90
19261;DHT22;9764;48.114;11.670;2023-02-15T04:00:04;19.30;83.00
19261;DHT22;9764;48.114;11.670;2023-02-15T04:03:10;19.30;83.00
19261;DHT22;9764;48.114;11.670;2023-02-15T04:05:40;19.30;82.90
19261;DHT22;9764;48.114;11.670;2023-02-15T04:08:11;19.30;82.90
19261;DHT22;9764;48.114;11.670;2023-02-15T04:10:39;19.30;83.10
19261;DHT22;9764;48.114;11.670;2023-02-15T04:13:19;19.30;83.10
19261;DHT22;9764;48.114;11.670;2023-02-15T04:15:48;19.20;83.10
19261;DHT22;9764;48.114;11.670;2023-02-15T04:18:35;19.20;84.00
19261;DHT22;9764;48.114;11.670;2023-02-15T04:21:22;19.30;83.20
19261;DHT22;9764;48.114;11.670;2023-02-15T04:24:10;19.30;83.10
19261;DHT22;9764;48.114;11.670;2023-02-15T04:26:58;19.30;83.10
19261;DHT22;9764;48.114;11.670;2023-02-15T04:29:27;19.30;83.20
19261;DHT22;9764;48.114;11.670;2023-02-15T04:31:57;19.30;83.20
19261;DHT22;9764;48.114;11.670;2023-02-15T04:34:25;19.30;83.90
19261;DHT22;9764;48.114;11.670;2023-02-15T04:36:53;19.30;83.20
19261;DHT22;9764;48.114;11.670;2023-02-15T04:39:23;19.30;83.30
19261;DHT22;9764;48.114;11.670;2023-02-15T04:41:51;19.20;83.30
19261;DHT22;9764;48.114;11.670;2023-02-15T04:44:20;19.20;83.30
19261;DHT22;9764;48.114;11.670;2023-02-15T04:46:48;19.20;83.30
19261;DHT22;9764;48.114;11.670;2023-02-15T04:49:16;19.30;83.20
19261;DHT22;9764;48.114;11.670;2023-02-15T04:51:44;19.30;83.30
19261;DHT22;9764;48.114;11.670;2023-02-15T04:54:13;19.30;83.40
19261;DHT22;9764;48.114;11.670;2023-02-15T04:56:43;19.30;83.30
19261;DHT22;9764;48.114;11.670;2023-02-15T04:59:11;19.30;83.20
19261;DHT22;9764;48.114;11.670;2023-02-15T05:01:40;19.30;83.20
19261;DHT22;9764;48.114;11.670;2023-02-15T05:04:08;19.30;83.20
19261;DHT22;9764;48.114;11.670;2023-02-15T05:06:36;19.20;83.30
19261;DHT22;9764;48.114;11.670;2023-02-15T05:09:05;19.20;83.40
19261;DHT22;9764;48.114;11.670;2023-02-15T05:11:33;19.10;83.50
19261;DHT22;9764;48.114;11.670;2023-02-15T05:14:03;19.20;84.30
19261;DHT22;9764;48.114;11.670;2023-02-15T05:16:31;19.20;84.10
19261;DHT22;9764;48.114;11.670;2023-02-15T05:19:00;19.20;83.30
19261;DHT22;9764;48.114;11.670;2023-02-15T05:21:28;19.20;83.30
19261;DHT22;9764;48.114;11.670;2023-02-15T05:23:56;19.20;83.40
19261;DHT22;9764;48.114;11.670;2023-02-15T05:26:25;19.30;83.40
19261;DHT22;9764;48.114;11.670;2023-02-15T05:29:12;19.20;83.30
19261;DHT22;9764;48.114;11.670;2023-02-15T05:31:40;19.30;83.20
19261;DHT22;9764;48.114;11.670;2023-02-15T05:34:11;19.30;83.30
19261;DHT22;9764;48.114;11.670;2023-02-15T05:36:39;19.30;83.20
19261;DHT22;9764;48.114;11.670;2023-02-15T05:39:07;19.30;83.10
19261;DHT22;9764;48.114;11.670;2023-02-15T05:41:36;19.30;83.10
19261;DHT22;9764;48.114;11.670;2023-02-15T05:44:04;19.30;83.20
19261;DHT22;9764;48.114;11.670;2023-02-15T05:46:34;19.30;83.20
19261;DHT22;9764;48.114;11.670;2023-02-15T05:49:02;19.30;83.20
19261;DHT22;9764;48.114;11.670;2023-02-15T05:51:30;19.20;83.20
19261;DHT22;9764;48.114;11.670;2023-02-15T05:53:58;19.20;83.30
19261;DHT22;9764;48.114;11.670;2023-02-15T05:56:27;19.30;83.20
19261;DHT22;9764;48.114;11.670;2023-02-15T05:58:55;19.30;83.00
19261;DHT22;9764;48.114;11.670;2023-02-15T06:01:23;19.30;83.10
19261;DHT22;9764;48.114;11.670;2023-02-15T06:03:53;19.30;83.00
19261;DHT22;9764;48.114;11.670;2023-02-15T06:06:22;19.30;83.10
19261;DHT22;9764;48.114;11.670;2023-02-15T06:08:50;19.20;83.10
19261;DHT22;9764;48.114;11.670;2023-02-15T06:11:19;19.20;83.10
19261;DHT22;9764;48.114;11.670;2023-02-15T06:13:47;19.20;83.20
19261;DHT22;9764;48.114;11.670;2023-02-15T06:16:15;19.30;83.10
19261;DHT22;9764;48.114;11.670;2023-02-15T06:18:43;19.20;83.00
19261;DHT22;9764;48.114;11.670;2023-02-15T06:21:13;19.30;83.00
19261;DHT22;9764;48.114;11.670;2023-02-15T06:23:41;19.20;83.00
19261;DHT22;9764;48.114;11.670;2023-02-15T06:26:10;19.30;83.00
19261;DHT22;9764;48.114;11.670;2023-02-15T06:28:38;19.30;83.70
19261;DHT22;9764;48.114;11.670;2023-02-15T06:31:07;19.30;83.00
19261;DHT22;9764;48.114;11.670;2023-02-15T06:33:36;19.30;82.90
19261;DHT22;9764;48.114;11.670;2023-02-15T06:36:05;19.30;83.70
19261;DHT22;9764;48.114;11.670;2023-02-15T06:38:35;19.30;82.90
19261;DHT22;9764;48.114;11.670;2023-02-15T06:41:03;19.30;82.90
19261;DHT22;9764;48.114;11.670;2023-02-15T06:43:31;19.20;82.90
19261;DHT22;9764;48.114;11.670;2023-02-15T06:46:00;19.30;82.90
19261;DHT22;9764;48.114;11.670;2023-02-15T06:48:29;19.20;83.00
19261;DHT22;9764;48.114;11.670;2023-02-15T06:50:58;19.30;82.80
19261;DHT22;9764;48.114;11.670;2023-02-15T06:53:26;19.30;82.90
19261;DHT22;9764;48.114;11.670;2023-02-15T06:56:01;19.20;82.90
19261;DHT22;9764;48.114;11.670;2023-02-15T06:58:33;19.20;82.90
19261;DHT22;9764;48.114;11.670;2023-02-15T07:01:01;19.20;82.90
19261;DHT22;9764;48.114;11.670;2023-02-15T07:03:30;19.20;83.00
19261;DHT22;9764;48.114;11.670;2023-02-15T07:05:59;19.20;82.90
19261;DHT22;9764;48.114;11.670;2023-02-15T07:08:29;19.20;82.70
19261;DHT22;9764;48.114;11.670;2023-02-15T07:10:57;19.30;82.70
19261;DHT22;9764;48.114;11.670;2023-02-15T07:13:47;19.30;82.70
19261;DHT22;9764;48.114;11.670;2023-02-15T07:16:15;19.20;82.70
19261;DHT22;9764;48.114;11.670;2023-02-15T07:18:43;19.20;82.80
19261;DHT22;9764;48.114;11.670;2023-02-15T07:21:11;19.20;82.90
19261;DHT22;9764;48.114;11.670;2023-02-15T07:23:40;19.20;82.80
19261;DHT22;9764;48.114;11.670;2023-02-15T07:26:08;19.20;82.70
19261;DHT22;9764;48.114;11.670;2023-02-15T07:28:36;19.20;82.70
19261;DHT22;9764;48.114;11.670;2023-02-15T07:31:06;19.30;82.70
19261;DHT22;9764;48.114;11.670;2023-02-15T07:33:35;19.30;82.70
19261;DHT22;9764;48.114;11.670;2023-02-15T07:36:04;19.30;82.70
19261;DHT22;9764;48.114;11.670;2023-02-15T07:38:34;19.30;82.60
19261;DHT22;9764;48.114;11.670;2023-02-15T07:41:04;19.30;82.50
19261;DHT22;9764;48.114;11.670;2023-02-15T07:43:34;19.30;82.60
19261;DHT22;9764;48.114;11.670;2023-02-15T07:46:04;19.30;83.30
19261;DHT22;9764;48.114;11.670;2023-02-15T07:48:36;19.30;82.50
19261;DHT22;9764;48.114;11.670;2023-02-15T07:51:06;19.30;82.50
19261;DHT22;9764;48.114;11.670;2023-02-15T07:53:36;19.30;82.40
19261;DHT22;9764;48.114;11.670;2023-02-15T07:56:07;19.30;82.40
19261;DHT22;9764;48.114;11.670;2023-02-15T07:58:35;19.30;82.40
19261;DHT22;9764;48.114;11.670;2023-02-15T08:01:20;19.40;82.40
19261;DHT22;9764;48.114;11.670;2023-02-15T08:03:50;19.40;82.30
19261;DHT22;9764;48.114;11.670;2023-02-15T08:06:19;19.40;82.40
19261;DHT22;9764;48.114;11.670;2023-02-15T08:08:48;19.30;82.40
19261;DHT22;9764;48.114;11.670;2023-02-15T08:11:19;19.30;82.50
19261;DHT22;9764;48.114;11.670;2023-02-15T08:13:57;19.30;83.40
19261;DHT22;9764;48.114;11.670;2023-02-15T08:16:29;19.20;82.60
19261;DHT22;9764;48.114;11.670;2023-02-15T08:19:00;19.30;82.50
19261;DHT22;9764;48.114;11.670;2023-02-15T08:21:29;19.30;82.50
19261;DHT22;9764;48.114;11.670;2023-02-15T08:23:58;19.30;82.50
19261;DHT22;9764;48.114;11.670;2023-02-15T08:26:28;19.30;82.60
19261;DHT22;9764;48.114;11.670;2023-02-15T08:28:57;19.20;82.60
19261;DHT22;9764;48.114;11.670;2023-02-15T08:31:26;19.30;82.60
19261;DHT22;9764;48.114;11.670;2023-02-15T08:33:56;19.30;82.60
19261;DHT22;9764;48.114;11.670;2023-02-15T08:36:27;19.30;82.50
19261;DHT22;9764;48.114;11.670;2023-02-15T08:38:58;19.30;82.50
19261;DHT22;9764;48.114;11.670;2023-02-15T08:41:28;19.30;83.30
19261;DHT22;9764;48.114;11.670;2023-02-15T08:44:05;19.30;82.50
19261;DHT22;9764;48.114;11.670;2023-02-15T08:46:36;19.30;82.50
19261;DHT22;9764;48.114;11.670;2023-02-15T08:49:04;19.30;82.30
19261;DHT22;9764;48.114;11.670;2023-02-15T08:51:36;19.40;82.20
19261;DHT22;9764;48.114;11.670;2023-02-15T08:54:07;19.40;82.20
19261;DHT22;9764;48.114;11.670;2023-02-15T08:56:38;19.40;82.30
19261;DHT22;9764;48.114;11.670;2023-02-15T08:59:10;19.30;83.20
19261;DHT22;9764;48.114;11.670;2023-02-15T09:01:39;19.30;82.40
19261;DHT22;9764;48.114;11.670;2023-02-15T09:04:08;19.30;82.50
19261;DHT22;9764;48.114;11.670;2023-02-15T09:06:38;19.30;82.40
19261;DHT22;9764;48.114;11.670;2023-02-15T09:09:07;19.40;83.10
19261;DHT22;9764;48.114;11.670;2023-02-15T09:11:38;19.40;82.30
19261;DHT22;9764;48.114;11.670;2023-02-15T09:14:07;19.30;82.50
19261;DHT22;9764;48.114;11.670;2023-02-15T09:16:37;19.30;82.40
19261;DHT22;9764;48.114;11.670;2023-02-15T09:19:06;19.30;82.40
19261;DHT22;9764;48.114;11.670;2023-02-15T09:21:36;19.30;82.00
19261;DHT22;9764;48.114;11.670;2023-02-15T09:24:08;19.40;82.30
19261;DHT22;9764;48.114;11.670;2023-02-15T09:26:39;19.40;82.30
19261;DHT22;9764;48.114;11.670;2023-02-15T09:29:09;19.40;82.30
19261;DHT22;9764;48.114;11.670;2023-02-15T09:31:39;19.40;82.30
19261;DHT22;9764;48.114;11.670;2023-02-15T09:34:12;19.40;82.30
19261;DHT22;9764;48.114;11.670;2023-02-15T09:36:40;19.40;83.10
19261;DHT22;9764;48.114;11.670;2023-02-15T09:39:12;19.40;82.40
19261;DHT22;9764;48.114;11.670;2023-02-15T09:42:04;19.40;82.40
19261;DHT22;9764;48.114;11.670;2023-02-15T09:44:49;19.40;82.30
19261;DHT22;9764;48.114;11.670;2023-02-15T09:47:40;19.40;82.10
19261;DHT22;9764;48.114;11.670;2023-02-15T09:50:15;19.40;82.10
19261;DHT22;9764;48.114;11.670;2023-02-15T09:53:05;19.50;82.20
19261;DHT22;9764;48.114;11.670;2023-02-15T09:55:51;19.40;82.10
19261;DHT22;9764;48.114;11.670;2023-02-15T09:58:29;19.50;82.20
19261;DHT22;9764;48.114;11.670;2023-02-15T10:01:00;19.50;82.10
19261;DHT22;9764;48.114;11.670;2023-02-15T10:03:42;19.50;82.00
19261;DHT22;9764;48.114;11.670;2023-02-15T10:06:28;19.50;81.90
19261;DHT22;9764;48.114;11.670;2023-02-15T10:09:09;19.60;82.00
19261;DHT22;9764;48.114;11.670;2023-02-15T10:11:51;19.60;82.00
19261;DHT22;9764;48.114;11.670;2023-02-15T10:14:37;19.50;82.00
19261;DHT22;9764;48.114;11.670;2023-02-15T10:17:28;19.70;81.80
19261;DHT22;9764;48.114;11.670;2023-02-15T10:20:08;19.80;81.40
19261;DHT22;9764;48.114;11.670;2023-02-15T10:22:47;19.80;81.20
19261;DHT22;9764;48.114;11.670;2023-02-15T10:25:25;19.80;81.30
19261;DHT22;9764;48.114;11.670;2023-02-15T10:28:04;19.70;81.60
19261;DHT22;9764;48.114;11.670;2023-02-15T10:30:41;19.70;81.60
19261;DHT22;9764;48.114;11.670;2023-02-15T10:33:21;19.50;82.10
19261;DHT22;9764;48.114;11.670;2023-02-15T10:35:59;19.50;82.50
19261;DHT22;9764;48.114;11.670;2023-02-15T10:38:36;19.40;82.70
19261;DHT22;9764;48.114;11.670;2023-02-15T10:41:17;19.30;82.90
19261;DHT22;9764;48.114;11.670;2023-02-15T10:44:00;19.30;83.10
19261;DHT22;9764;48.114;11.670;2023-02-15T10:46:46;19.30;83.10
19261;DHT22;9764;48.114;11.670;2023-02-15T10:49:29;19.30;83.10
19261;DHT22;9764;48.114;11.670;2023-02-15T10:52:13;19.30;83.20
19261;DHT22;9764;48.114;11.670;2023-02-15T10:54:45;19.30;83.20
19261;DHT22;9764;48.114;11.670;2023-02-15T10:57:30;19.30;83.20
19261;DHT22;9764;48.114;11.670;2023-02-15T11:00:09;19.40;83.20
19261;DHT22;9764;48.114;11.670;2023-02-15T11:02:59;19.30;83.10
19261;DHT22;9764;48.114;11.670;2023-02-15T11:05:38;19.30;83.10
19261;DHT22;9764;48.114;11.670;2023-02-15T11:08:10;19.40;83.20
19261;DHT22;9764;48.114;11.670;2023-02-15T11:10:42;19.40;83.10
19261;DHT22;9764;48.114;11.670;2023-02-15T11:13:14;19.40;83.10
19261;DHT22;9764;48.114;11.670;2023-02-15T11:15:49;19.40;84.00
19261;DHT22;9764;48.114;11.670;2023-02-15T11:18:23;19.40;83.20
19261;DHT22;9764;48.114;11.670;2023-02-15T11:20:56;19.40;83.10
19261;DHT22;9764;48.114;11.670;2023-02-15T11:23:27;19.40;83.20
19261;DHT22;9764;48.114;11.670;2023-02-15T11:25:57;19.40;83.20
19261;DHT22;9764;48.114;11.670;2023-02-15T11:28:31;19.40;83.20
19261;DHT22;9764;48.114;11.670;2023-02-15T11:31:13;19.40;83.20
19261;DHT22;9764;48.114;11.670;2023-02-15T11:33:45;19.40;83.20
19261;DHT22;9764;48.114;11.670;2023-02-15T11:36:20;19.50;83.20
19261;DHT22;9764;48.114;11.670;2023-02-15T11:38:54;19.50;83.20
19261;DHT22;9764;48.114;11.670;2023-02-15T11:41:28;19.50;83.20
19261;DHT22;9764;48.114;11.670;2023-02-15T11:44:00;19.40;83.20
19261;DHT22;9764;48.114;11.670;2023-02-15T11:46:36;19.50;83.20
19261;DHT22;9764;48.114;11.670;2023-02-15T11:49:09;19.50;83.10
19261;DHT22;9764;48.114;11.670;2023-02-15T11:51:45;19.50;83.20
19261;DHT22;9764;48.114;11.670;2023-02-15T11:54:13;19.50;83.00
19261;DHT22;9764;48.114;11.670;2023-02-15T11:56:41;19.50;83.00
19261;DHT22;9764;48.114;11.670;2023-02-15T11:59:24;19.50;82.90
19261;DHT22;9764;48.114;11.670;2023-02-15T12:01:55;19.50;82.90
19261;DHT22;9764;48.114;11.670;2023-02-15T12:04:26;19.60;82.90
19261;DHT22;9764;48.114;11.670;2023-02-15T12:07:00;19.60;82.80
19261;DHT22;9764;48.114;11.670;2023-02-15T12:09:34;19.60;82.70
19261;DHT22;9764;48.114;11.670;2023-02-15T12:12:21;19.60;82.70
19261;DHT22;9764;48.114;11.670;2023-02-15T12:14:51;19.60;82.70
19261;DHT22;9764;48.114;11.670;2023-02-15T12:17:23;19.60;82.70
19261;DHT22;9764;48.114;11.670;2023-02-15T12:19:55;19.60;82.60
19261;DHT22;9764;48.114;11.670;2023-02-15T12:22:26;19.60;82.70
19261;DHT22;9764;48.114;11.670;2023-02-15T12:24:57;19.60;82.70
19261;DHT22;9764;48.114;11.670;2023-02-15T12:27:27;19.60;82.60
19261;DHT22;9764;48.114;11.670;2023-02-15T12:29:59;19.60;82.70
19261;DHT22;9764;48.114;11.670;2023-02-15T12:32:34;19.60;82.60
19261;DHT22;9764;48.114;11.670;2023-02-15T12:35:09;19.60;82.60
19261;DHT22;9764;48.114;11.670;2023-02-15T12:37:52;19.70;82.60
19261;DHT22;9764;48.114;11.670;2023-02-15T12:40:23;19.70;82.50
19261;DHT22;9764;48.114;11.670;2023-02-15T12:42:52;19.70;82.50
19261;DHT22;9764;48.114;11.670;2023-02-15T12:45:24;19.70;82.40
19261;DHT22;9764;48.114;11.670;2023-02-15T12:48:15;19.70;82.30
19261;DHT22;9764;48.114;11.670;2023-02-15T12:50:44;19.80;82.40
19261;DHT22;9764;48.114;11.670;2023-02-15T12:53:31;19.80;82.20
19261;DHT22;9764;48.114;11.670;2023-02-15T12:56:02;19.90;82.10
19261;DHT22;9764;48.114;11.670;2023-02-15T12:58:32;19.90;82.00
19261;DHT22;9764;48.114;11.670;2023-02-15T13:01:10;19.90;81.80
19261;DHT22;9764;48.114;11.670;2023-02-15T13:03:55;20.00;82.70
19261;DHT22;9764;48.114;11.670;2023-02-15T13:06:25;20.10;81.60
19261;DHT22;9764;48.114;11.670;2023-02-15T13:08:57;20.10;81.40
19261;DHT22;9764;48.114;11.670;2023-02-15T13:11:29;20.10;81.30
19261;DHT22;9764;48.114;11.670;2023-02-15T13:14:02;20.30;81.00
19261;DHT22;9764;48.114;11.670;2023-02-15T13:16:33;20.20;81.20
19261;DHT22;9764;48.114;11.670;2023-02-15T13:19:07;20.10;81.20
19261;DHT22;9764;48.114;11.670;2023-02-15T13:21:40;20.10;81.40
19261;DHT22;9764;48.114;11.670;2023-02-15T13:24:17;20.10;81.30
19261;DHT22;9764;48.114;11.670;2023-02-15T13:26:47;20.10;81.30
19261;DHT22;9764;48.114;11.670;2023-02-15T13:29:20;20.10;81.20
19261;DHT22;9764;48.114;11.670;2023-02-15T13:31:50;20.20;81.00
19261;DHT22;9764;48.114;11.670;2023-02-15T13:34:24;20.10;81.10
19261;DHT22;9764;48.114;11.670;2023-02-15T13:37:01;20.10;81.10
19261;DHT22;9764;48.114;11.670;2023-02-15T13:39:38;20.10;81.10
19261;DHT22;9764;48.114;11.670;2023-02-15T13:42:17;20.10;81.20
19261;DHT22;9764;48.114;11.670;2023-02-15T13:45:07;20.00;81.00
19261;DHT22;9764;48.114;11.670;2023-02-15T13:47:43;20.10;81.00
19261;DHT22;9764;48.114;11.670;2023-02-15T13:50:36;20.10;80.90
19261;DHT22;9764;48.114;11.670;2023-02-15T13:53:23;20.10;80.80
19261;DHT22;9764;48.114;11.670;2023-02-15T13:55:55;20.10;80.80
19261;DHT22;9764;48.114;11.670;2023-02-15T14:01:30;20.10;80.80
19261;DHT22;9764;48.114;11.670;2023-02-15T14:04:26;20.10;80.60
19261;DHT22;9764;48.114;11.670;2023-02-15T14:07:14;20.20;80.60
19261;DHT22;9764;48.114;11.670;2023-02-15T14:09:52;20.20;80.40
19261;DHT22;9764;48.114;11.670;2023-02-15T14:12:37;20.20;80.50
19261;DHT22;9764;48.114;11.670;2023-02-15T14:15:35;20.20;80.40
19261;DHT22;9764;48.114;11.670;2023-02-15T14:18:15;20.20;80.40
19261;DHT22;9764;48.114;11.670;2023-02-15T14:21:00;20.20;80.50
19261;DHT22;9764;48.114;11.670;2023-02-15T14:23:43;20.20;81.20
19261;DHT22;9764;48.114;11.670;2023-02-15T14:26:20;20.20;80.30
19261;DHT22;9764;48.114;11.670;2023-02-15T14:28:56;20.30;80.40
19261;DHT22;9764;48.114;11.670;2023-02-15T14:31:33;20.30;80.20
19261;DHT22;9764;48.114;11.670;2023-02-15T14:34:02;20.20;80.30
19261;DHT22;9764;48.114;11.670;2023-02-15T14:36:33;20.20;80.40
19261;DHT22;9764;48.114;11.670;2023-02-15T14:39:11;20.20;80.40
19261;DHT22;9764;48.114;11.670;2023-02-15T14:42:01;20.10;80.40
19261;DHT22;9764;48.114;11.670;2023-02-15T14:44:36;20.10;80.40
19261;DHT22;9764;48.114;11.670;2023-02-15T14:47:09;20.10;80.50
19261;DHT22;9764;48.114;11.670;2023-02-15T14:49:39;20.10;80.30
19261;DHT22;9764;48.114;11.670;2023-02-15T14:52:08;20.10;80.50
19261;DHT22;9764;48.114;11.670;2023-02-15T14:54:56;20.20;80.50
19261;DHT22;9764;48.114;11.670;2023-02-15T14:57:30;20.10;80.30
19261;DHT22;9764;48.114;11.670;2023-02-15T15:02:52;20.10;80.40
19261;DHT22;9764;48.114;11.670;2023-02-15T15:05:24;20.10;80.10
19261;DHT22;9764;48.114;11.670;2023-02-15T15:07:56;20.10;80.30
19261;DHT22;9764;48.114;11.670;2023-02-15T15:10:39;20.10;81.00
19261;DHT22;9764;48.114;11.670;2023-02-15T15:13:39;20.10;80.30
19261;DHT22;9764;48.114;11.670;2023-02-15T15:16:51;20.20;79.90
19261;DHT22;9764;48.114;11.670;2023-02-15T15:22:41;20.20;79.90
19261;DHT22;9764;48.114;11.670;2023-02-15T15:25:12;20.20;79.30
19261;DHT22;9764;48.114;11.670;2023-02-15T15:28:02;20.20;78.70
19261;DHT22;9764;48.114;11.670;2023-02-15T15:30:49;20.20;80.00
19261;DHT22;9764;48.114;11.670;2023-02-15T15:39:18;20.30;78.60
19261;DHT22;9764;48.114;11.670;2023-02-15T15:41:53;20.30;78.10
19261;DHT22;9764;48.114;11.670;2023-02-15T15:44:52;20.30;78.50
19261;DHT22;9764;48.114;11.670;2023-02-15T15:47:37;20.40;78.50
19261;DHT22;9764;48.114;11.670;2023-02-15T15:50:12;20.40;78.40
19261;DHT22;9764;48.114;11.670;2023-02-15T15:52:44;20.40;78.60
19261;DHT22;9764;48.114;11.670;2023-02-15T15:55:16;20.40;78.80
19261;DHT22;9764;48.114;11.670;2023-02-15T15:57:48;20.40;78.50
19261;DHT22;9764;48.114;11.670;2023-02-15T16:00:33;20.50;78.00
19261;DHT22;9764;48.114;11.670;2023-02-15T16:03:02;20.40;78.80
19261;DHT22;9764;48.114;11.670;2023-02-15T16:05:36;20.40;79.50
19261;DHT22;9764;48.114;11.670;2023-02-15T16:08:05;20.30;79.80
19261;DHT22;9764;48.114;11.670;2023-02-15T16:10:34;20.30;79.40
19261;DHT22;9764;48.114;11.670;2023-02-15T16:13:06;20.30;79.80
19261;DHT22;9764;48.114;11.670;2023-02-15T16:15:43;20.20;79.80
19261;DHT22;9764;48.114;11.670;2023-02-15T16:18:18;20.30;79.80
19261;DHT22;9764;48.114;11.670;2023-02-15T16:20:51;20.20;79.70
19261;DHT22;9764;48.114;11.670;2023-02-15T16:23:45;20.30;79.90
19261;DHT22;9764;48.114;11.670;2023-02-15T16:26:21;20.30;79.50
19261;DHT22;9764;48.114;11.670;2023-02-15T16:28:54;20.30;79.50
19261;DHT22;9764;48.114;11.670;2023-02-15T16:31:24;20.30;80.10
19261;DHT22;9764;48.114;11.670;2023-02-15T16:33:53;20.30;79.90